Time;durP1;ratioP1;P1;durP2;ratioP2;P2;SDS_P1;SDS_P2;PMS_P1;PMS_P2;Temp;Humidity;BMP_temperature;BMP_pressure;BME280_temperature;BME280_humidity;BME280_pressure;Samples;Min_cycle;Max_cycle;Signal;HPM_P1;HPM_P2
2022/03/22 00:00:23;;;;;;;1999.90;999.90;;;;;;;6.99;43.46;164261.88;4988916;28;20085;-67
2022/03/22 00:02:50;;;;;;;1999.90;999.90;;;;;;;6.89;43.13;164234.38;4980859;28;20422;-67
2022/03/22 00:05:16;;;;;;;1999.90;999.90;;;;;;;6.73;43.53;164190.41;4993475;28;20062;-67
2022/03/22 00:07:43;;;;;;;1999.90;999.90;;;;;;;6.88;44.15;164233.03;4979921;28;20054;-67
2022/03/22 00:10:10;;;;;;;1999.90;999.90;;;;;;;6.80;43.34;164209.66;4988431;28;20499;-67
2022/03/22 00:12:37;;;;;;;1999.90;999.90;;;;;;;6.66;44.59;164173.94;4976685;28;20053;-67
2022/03/22 00:15:04;;;;;;;1999.90;999.90;;;;;;;6.83;44.32;164219.31;4990565;28;20447;-67
2022/03/22 00:17:51;;;;;;;1999.90;999.90;;;;;;;6.87;44.20;164228.91;4987678;28;20060;-67
2022/03/22 00:20:17;;;;;;;1999.90;999.90;;;;;;;6.81;44.59;164212.44;4977810;28;20109;-68
2022/03/22 00:22:44;;;;;;;1999.90;999.90;;;;;;;6.86;44.69;164226.13;4981278;28;20051;-67
2022/03/22 00:25:10;;;;;;;1999.90;999.90;;;;;;;6.86;45.59;164226.13;4972489;28;20348;-67
2022/03/22 00:27:53;;;;;;;1999.90;999.90;;;;;;;6.75;46.21;164197.31;4985221;28;20086;-67
2022/03/22 00:30:32;;;;;;;1999.90;999.90;;;;;;;6.39;45.68;164099.81;4980004;28;20128;-67
2022/03/22 00:33:01;;;;;;;1999.90;999.90;;;;;;;6.23;47.33;164058.56;4986910;28;20050;-67
2022/03/22 00:35:30;;;;;;;1999.90;999.90;;;;;;;6.16;47.16;164040.75;4986727;28;20345;-67
2022/03/22 00:37:59;;;;;;;1999.90;999.90;;;;;;;5.82;46.26;163948.66;4972762;28;20077;-67
2022/03/22 00:40:27;;;;;;;1999.90;999.90;;;;;;;5.92;46.99;163976.13;5002792;28;20089;-67
2022/03/22 00:42:54;;;;;;;1999.90;999.90;;;;;;;6.11;47.82;164027.00;4981218;28;20059;-67
2022/03/22 00:45:24;;;;;;;1999.90;999.90;;;;;;;6.10;47.45;164022.88;4988769;28;20073;-67
2022/03/22 00:47:52;;;;;;;1999.90;999.90;;;;;;;6.03;47.32;164003.66;4979309;28;20560;-68
2022/03/22 00:50:23;;;;;;;1999.90;999.90;;;;;;;6.02;48.03;164000.94;4988432;28;20388;-68
2022/03/22 00:52:50;;;;;;;1999.90;999.90;;;;;;;5.92;47.87;163974.78;4987131;28;20050;-67
2022/03/22 00:55:17;;;;;;;1999.90;999.90;;;;;;;5.89;48.55;163967.88;4973949;28;20082;-67
2022/03/22 00:57:44;;;;;;;1999.90;999.90;;;;;;;5.84;49.65;163952.84;4988096;28;20147;-67
2022/03/22 01:00:13;;;;;;;1999.90;999.90;;;;;;;5.72;50.07;163921.25;4977131;28;20050;-67
2022/03/22 01:02:49;;;;;;;1999.90;999.90;;;;;;;5.52;49.99;163869.06;4983610;28;20074;-67
2022/03/22 01:05:19;;;;;;;1999.90;999.90;;;;;;;5.25;48.58;163797.69;4969031;28;20065;-67
2022/03/22 01:07:48;;;;;;;1999.90;999.90;;;;;;;4.45;50.17;163583.72;4982084;28;20077;-67
2022/03/22 01:10:16;;;;;;;1999.90;999.90;;;;;;;3.40;52.70;163302.66;4979004;28;20454;-67
2022/03/22 01:12:45;;;;;;;1999.90;999.90;;;;;;;3.66;52.45;163372.50;4963974;28;20090;-66
2022/03/22 01:15:20;;;;;;;1999.90;999.90;;;;;;;3.96;51.68;163452.03;4986480;28;20106;-67
2022/03/22 01:17:49;;;;;;;1999.90;999.90;;;;;;;4.99;48.81;163727.72;4973951;28;20054;-67
2022/03/22 01:20:19;;;;;;;1999.90;999.90;;;;;;;4.83;48.48;163685.19;4985216;28;20101;-67
2022/03/22 01:22:47;;;;;;;1999.90;999.90;;;;;;;4.97;48.28;163720.84;4979663;28;20077;-67
2022/03/22 01:25:23;;;;;;;1999.90;999.90;;;;;;;5.13;47.11;163764.75;4986738;28;20302;-67
2022/03/22 01:27:50;;;;;;;1999.90;999.90;;;;;;;5.35;46.51;163823.78;4990996;28;20046;-68
2022/03/22 01:30:22;;;;;;;1999.90;999.90;;;;;;;4.90;47.33;163704.41;4981288;28;20050;-67
2022/03/22 01:32:50;;;;;;;1999.90;999.90;;;;;;;5.48;46.68;163858.09;4974723;28;20275;-67
2022/03/22 01:35:23;;;;;;;1999.90;999.90;;;;;;;6.05;45.60;164009.16;4976597;28;20237;-67
2022/03/22 01:37:50;;;;;;;1999.90;999.90;;;;;;;6.06;46.16;164011.88;4985777;28;20047;-67
2022/03/22 01:40:18;;;;;;;1999.90;999.90;;;;;;;6.09;46.10;164021.53;4972201;28;20081;-67
2022/03/22 01:42:46;;;;;;;1999.90;999.90;;;;;;;5.77;47.44;163936.31;4991485;28;20050;-67
2022/03/22 01:45:13;;;;;;;1999.90;999.90;;;;;;;5.82;46.88;163948.66;4990896;28;20050;-67
2022/03/22 01:47:45;;;;;;;1999.90;999.90;;;;;;;5.86;47.25;163958.31;4981950;28;20056;-67
2022/03/22 01:50:15;;;;;;;1999.90;999.90;;;;;;;5.46;48.36;163852.59;4988744;28;20634;-67
2022/03/22 01:52:43;;;;;;;1999.90;999.90;;;;;;;5.41;47.31;163840.25;4979655;28;20124;-68
2022/03/22 01:55:12;;;;;;;1999.90;999.90;;;;;;;5.20;47.59;163782.63;4988028;28;20371;-67
2022/03/22 01:57:39;;;;;;;1999.90;999.90;;;;;;;5.07;47.59;163749.66;4982771;28;20050;-68
2022/03/22 02:00:08;;;;;;;1999.90;999.90;;;;;;;5.16;48.38;163771.63;4985329;28;20050;-67
2022/03/22 02:08:11;;;;;;;1999.90;999.90;;;;;;;5.40;50.05;163836.13;4991485;28;20281;-67
2022/03/22 02:10:38;;;;;;;1999.90;999.90;;;;;;;5.35;50.80;163822.44;4973402;28;20051;-67
2022/03/22 02:13:05;;;;;;;1999.90;999.90;;;;;;;5.37;50.38;163827.88;4981645;28;20198;-67
2022/03/22 02:15:32;;;;;;;1999.90;999.90;;;;;;;5.35;50.70;163822.44;4981033;28;20101;-67
2022/03/22 02:17:59;;;;;;;1999.90;999.90;;;;;;;5.33;49.09;163816.91;4990843;28;20050;-67
2022/03/22 02:20:26;;;;;;;1999.90;999.90;;;;;;;5.23;49.36;163792.22;4986830;28;20452;-67
2022/03/22 02:23:13;;;;;;;1999.90;999.90;;;;;;;4.92;50.59;163709.88;4979500;28;20050;-67
2022/03/22 02:25:39;;;;;;;1999.90;999.90;;;;;;;4.86;50.97;163693.41;4990479;28;20054;-67
2022/03/22 02:28:06;;;;;;;1999.90;999.90;;;;;;;4.89;50.28;163701.63;4972923;28;20078;-67
2022/03/22 02:30:32;;;;;;;1999.90;999.90;;;;;;;4.96;51.27;163719.50;4986948;28;20054;-67
2022/03/22 02:33:01;;;;;;;1999.90;999.90;;;;;;;4.75;50.51;163663.25;4981476;28;20061;-67
2022/03/22 02:35:29;;;;;;;1999.90;999.90;;;;;;;4.65;50.25;163637.19;4989990;28;20057;-67
2022/03/22 02:37:57;;;;;;;1999.90;999.90;;;;;;;4.76;49.81;163665.97;4989209;28;20054;-67
2022/03/22 02:40:26;;;;;;;1999.90;999.90;;;;;;;4.62;50.42;163628.94;4980793;28;20054;-67
2022/03/22 02:42:56;;;;;;;1999.90;999.90;;;;;;;4.29;51.63;163539.78;4991471;28;20058;-67
2022/03/22 02:45:23;;;;;;;1999.90;999.90;;;;;;;4.30;52.21;163543.94;4978468;28;20284;-67
2022/03/22 02:47:50;;;;;;;1999.90;999.90;;;;;;;4.57;52.55;163616.59;4989121;28;20112;-67
2022/03/22 02:50:18;;;;;;;1999.90;999.90;;;;;;;4.70;52.58;163649.50;4979067;28;20064;-67
2022/03/22 02:52:47;;;;;;;1999.90;999.90;;;;;;;4.64;53.50;163633.06;4988544;28;20451;-67
2022/03/22 02:55:13;;;;;;;1999.90;999.90;;;;;;;4.66;53.00;163638.53;4989352;28;20482;-67
2022/03/22 02:57:40;;;;;;;1999.90;999.90;;;;;;;4.57;53.01;163616.59;4974119;28;20054;-67
2022/03/22 03:00:09;;;;;;;1999.90;999.90;;;;;;;4.42;53.00;163575.44;4980985;28;20086;-67
2022/03/22 03:02:51;;;;;;;1999.90;999.90;;;;;;;4.42;54.36;163575.44;4981546;28;20086;-67
2022/03/22 03:05:18;;;;;;;;;;;;;;;4.40;54.29;163569.97;4984457;28;20077;-67
2022/03/22 03:07:45;;;;;;;1999.90;999.90;;;;;;;4.37;54.63;163561.75;4975053;28;19961;-67
2022/03/22 03:10:12;;;;;;;1999.90;999.90;;;;;;;3.80;55.45;163409.56;4989519;28;20419;-67
2022/03/22 03:12:39;;;;;;;1999.90;999.90;;;;;;;3.39;56.94;163301.25;4989339;28;20135;-67
2022/03/22 03:15:10;;;;;;;1999.90;999.90;;;;;;;3.60;56.42;163356.06;4978226;28;20250;-68
2022/03/22 03:17:38;;;;;;;1999.90;999.90;;;;;;;3.74;55.87;163394.47;4982553;28;20585;-67
2022/03/22 03:20:06;;;;;;;1999.90;999.90;;;;;;;3.98;55.50;163457.53;4980447;28;20108;-67
2022/03/22 03:22:32;;;;;;;1999.90;999.90;;;;;;;4.14;55.95;163501.41;4988148;28;20058;-67
2022/03/22 03:24:59;;;;;;;1999.90;999.90;;;;;;;4.20;56.10;163517.84;4988772;28;20100;-68
2022/03/22 03:27:25;;;;;;;1999.90;999.90;;;;;;;4.09;55.59;163487.66;4977606;28;20081;-67
2022/03/22 03:29:52;;;;;;;1999.90;999.90;;;;;;;4.05;56.59;163478.09;4986094;28;20443;-67
2022/03/22 03:32:18;;;;;;;1999.90;999.90;;;;;;;4.28;56.39;163537.06;4970940;28;20086;-67
2022/03/22 03:34:45;;;;;;;1999.90;999.90;;;;;;;4.19;56.21;163513.75;4975925;28;20077;-67
2022/03/22 03:37:11;;;;;;;1999.90;999.90;;;;;;;4.09;56.18;163486.31;4974686;28;20994;-67
2022/03/22 03:39:38;;;;;;;1999.90;999.90;;;;;;;4.25;55.40;163530.19;4988981;28;20568;-67
2022/03/22 03:42:06;;;;;;;1999.90;999.90;;;;;;;4.19;55.73;163515.09;4981908;28;20280;-67
2022/03/22 03:47:22;;;;;;;1999.90;999.90;;;;;;;3.97;56.69;163454.78;4989968;28;20340;-67
2022/03/22 03:49:54;;;;;;;1999.90;999.90;;;;;;;4.07;56.89;163482.22;4979285;28;20141;-67
2022/03/22 03:52:22;;;;;;;;;;;;;;;4.23;56.87;163524.72;4980782;28;20058;-67
2022/03/22 03:54:50;;;;;;;1999.90;999.90;;;;;;;3.96;57.21;163453.44;4977362;28;19926;-67
2022/03/22 03:57:17;;;;;;;1999.90;999.90;;;;;;;3.70;57.62;163384.84;4988992;28;20105;-67
2022/03/22 03:59:44;;;;;;;1999.90;999.90;;;;;;;3.61;58.49;163360.19;4976828;28;20042;-67
2022/03/22 04:02:11;;;;;;;1999.90;999.90;;;;;;;3.77;57.87;163402.69;4980166;28;20054;-67
2022/03/22 04:04:40;;;;;;;1999.90;999.90;;;;;;;3.64;58.22;163368.41;4984638;28;20055;-68
2022/03/22 04:07:09;;;;;;;1999.90;999.90;;;;;;;3.46;58.62;163320.44;4955620;28;20073;-68
2022/03/22 04:09:37;;;;;;;1999.90;999.90;;;;;;;3.43;58.97;163310.88;4988392;28;20073;-68
2022/03/22 04:12:05;;;;;;;1999.90;999.90;;;;;;;3.55;59.19;163342.38;4980463;28;20952;-68
2022/03/22 04:14:31;;;;;;;1999.90;999.90;;;;;;;3.72;58.79;163388.97;4986511;28;20054;-67
2022/03/22 04:16:58;;;;;;;1999.90;999.90;;;;;;;3.80;58.27;163409.56;4987679;28;20270;-67
2022/03/22 04:19:26;;;;;;;1999.90;999.90;;;;;;;3.62;58.56;163362.94;4978615;28;20054;-68
2022/03/22 04:21:53;;;;;;;1999.90;999.90;;;;;;;3.21;60.19;163251.91;4982480;28;20065;-67
2022/03/22 04:24:19;;;;;;;1999.90;999.90;;;;;;;2.84;61.35;163154.63;4975181;28;20078;-67
2022/03/22 04:26:46;;;;;;;1999.90;999.90;;;;;;;2.82;62.02;163150.50;4987976;28;20148;-68
2022/03/22 04:34:46;;;;;;;1999.90;999.90;;;;;;;3.59;60.73;163353.31;4987622;28;20326;-68
2022/03/22 04:37:14;;;;;;;1999.90;999.90;;;;;;;3.68;60.16;163378.03;4975885;28;20104;-68
2022/03/22 04:39:42;;;;;;;1999.90;999.90;;;;;;;3.82;60.16;163415.03;4988395;28;20077;-68
2022/03/22 04:42:10;;;;;;;1999.90;999.90;;;;;;;3.71;59.71;163386.25;4979138;28;20077;-68
2022/03/22 04:44:37;;;;;;;1999.90;999.90;;;;;;;3.68;59.99;163378.03;4988169;28;20054;-68
2022/03/22 04:47:03;;;;;;;1999.90;999.90;;;;;;;3.64;60.10;163367.03;4975329;28;20602;-68
2022/03/22 04:49:32;;;;;;;1999.90;999.90;;;;;;;3.24;61.53;163260.16;4986365;28;20054;-68
2022/03/22 04:57:29;;;;;;;1999.90;999.90;;;;;;;2.79;63.13;163140.94;4986238;28;20444;-68
2022/03/22 04:59:55;;;;;;;1999.90;999.90;;;;;;;3.06;62.16;163213.53;4975778;28;20054;-68
2022/03/22 05:02:21;;;;;;;1999.90;999.90;;;;;;;3.25;61.93;163262.91;4990993;28;20058;-68
2022/03/22 05:04:48;;;;;;;1999.90;999.90;;;;;;;3.33;61.12;163284.78;4983516;28;20089;-68
2022/03/22 05:07:14;;;;;;;1999.90;999.90;;;;;;;3.50;60.73;163331.41;4992279;28;20616;-68
2022/03/22 05:09:41;;;;;;;1999.90;999.90;;;;;;;3.50;60.88;163331.41;4991815;28;20100;-68
2022/03/22 05:12:13;;;;;;;1999.90;999.90;;;;;;;3.42;61.00;163309.47;4980517;28;20455;-68
2022/03/22 05:14:41;;;;;;;1999.90;999.90;;;;;;;3.56;61.02;163345.09;4990416;28;20056;-68
2022/03/22 05:17:11;;;;;;;1999.90;999.90;;;;;;;3.67;60.51;163375.28;4982872;28;20085;-68
2022/03/22 05:19:40;;;;;;;1999.90;999.90;;;;;;;3.37;61.30;163294.41;4991608;28;20061;-68
2022/03/22 05:22:07;;;;;;;1999.90;999.90;;;;;;;3.49;61.09;163328.66;4980264;28;20050;-68
2022/03/22 05:24:34;;;;;;;1999.90;999.90;;;;;;;3.82;60.31;163416.38;4991925;28;20050;-68
2022/03/22 05:27:02;;;;;;;1999.90;999.90;;;;;;;3.91;60.29;163439.69;4991551;28;20054;-68
2022/03/22 05:29:29;;;;;;;1999.90;999.90;;;;;;;3.96;60.37;163452.03;4982748;28;20050;-68
2022/03/22 05:31:56;;;;;;;1999.90;999.90;;;;;;;3.72;60.97;163387.59;4989667;28;20046;-68
2022/03/22 05:34:22;;;;;;;1999.90;999.90;;;;;;;3.70;61.14;163384.84;4981584;28;20058;-68
2022/03/22 05:36:49;;;;;;;1999.90;999.90;;;;;;;3.96;60.66;163452.03;4991415;28;20120;-68
2022/03/22 05:39:15;;;;;;;1999.90;999.90;;;;;;;3.94;60.65;163446.56;4978686;28;20078;-67
2022/03/22 05:41:42;;;;;;;1999.90;999.90;;;;;;;4.15;60.41;163504.13;4990981;28;20101;-68
2022/03/22 05:44:13;;;;;;;1999.90;999.90;;;;;;;4.39;59.38;163567.22;4990956;28;20058;-68
2022/03/22 05:46:40;;;;;;;1999.90;999.90;;;;;;;4.39;59.16;163568.63;4982370;28;20066;-68
2022/03/22 05:49:08;;;;;;;1999.90;999.90;;;;;;;4.54;59.10;163606.97;4988515;28;20043;-68
2022/03/22 05:51:36;;;;;;;1999.90;999.90;;;;;;;4.47;58.72;163589.19;4982678;28;20050;-68
2022/03/22 05:54:03;;;;;;;1999.90;999.90;;;;;;;4.74;58.03;163660.50;4991850;28;20081;-68
2022/03/22 05:56:30;;;;;;;1999.90;999.90;;;;;;;4.64;58.03;163633.06;4982637;28;20513;-68
2022/03/22 05:58:58;;;;;;;1999.90;999.90;;;;;;;4.72;57.70;163655.03;4986697;28;20078;-68
2022/03/22 06:01:28;;;;;;;1999.90;999.90;;;;;;;4.87;57.05;163696.19;4991224;28;20078;-68
2022/03/22 06:03:55;;;;;;;1999.90;999.90;;;;;;;5.10;56.09;163756.53;4983220;28;20328;-68
2022/03/22 06:06:22;;;;;;;1999.90;999.90;;;;;;;5.32;56.07;163815.56;4991012;28;20054;-68
2022/03/22 06:08:50;;;;;;;1999.90;999.90;;;;;;;5.56;55.51;163880.03;4982601;28;20588;-68
2022/03/22 06:11:18;;;;;;;1999.90;999.90;;;;;;;5.58;54.93;163885.56;4990636;28;20104;-67
2022/03/22 06:13:44;;;;;;;1999.90;999.90;;;;;;;5.72;54.96;163921.25;4989079;28;20054;-67
2022/03/22 06:16:12;;;;;;;1999.90;999.90;;;;;;;5.90;54.44;163970.66;4980628;28;20395;-67
2022/03/22 06:18:39;;;;;;;1999.90;999.90;;;;;;;5.77;55.18;163934.97;4990273;28;20057;-68
2022/03/22 06:21:06;;;;;;;1999.90;999.90;;;;;;;5.70;54.76;163915.72;4980778;28;20101;-68
2022/03/22 06:23:32;;;;;;;1999.90;999.90;;;;;;;5.52;54.95;163869.06;4990392;28;20058;-68
2022/03/22 06:26:01;;;;;;;1999.90;999.90;;;;;;;5.47;54.95;163856.69;4982804;28;20057;-68
2022/03/22 06:28:28;;;;;;;1999.90;999.90;;;;;;;5.70;54.51;163917.13;4984616;28;20435;-68
2022/03/22 06:30:54;;;;;;;1999.90;999.90;;;;;;;5.96;53.97;163985.75;4989768;28;20054;-68
2022/03/22 06:33:22;;;;;;;1999.90;999.90;;;;;;;5.75;54.92;163929.50;4970583;28;20105;-68
2022/03/22 06:35:49;;;;;;;1999.90;999.90;;;;;;;6.05;53.48;164010.53;4986333;28;20054;-68
2022/03/22 06:38:17;;;;;;;1999.90;999.90;;;;;;;6.13;52.99;164032.50;4981542;28;20047;-68
2022/03/22 06:40:44;;;;;;;1999.90;999.90;;;;;;;5.91;53.31;163972.00;4972634;28;20109;-68
2022/03/22 06:43:14;;;;;;;1999.90;999.90;;;;;;;6.14;52.80;164035.22;4979587;28;20113;-67
2022/03/22 06:45:43;;;;;;;1999.90;999.90;;;;;;;6.45;51.54;164117.63;4988420;28;20340;-67
2022/03/22 06:48:09;;;;;;;1999.90;999.90;;;;;;;6.97;51.20;164256.38;4989495;28;20051;-68
2022/03/22 06:50:37;;;;;;;1999.90;999.90;;;;;;;6.84;51.09;164220.66;4980696;28;20088;-66
2022/03/22 06:53:06;;;;;;;1999.90;999.90;;;;;;;7.31;49.80;164345.69;4990459;28;20113;-66
2022/03/22 06:55:33;;;;;;;1999.90;999.90;;;;;;;6.72;50.85;164187.72;4979968;28;20055;-67
2022/03/22 06:58:00;;;;;;;1999.90;999.90;;;;;;;6.44;51.38;164114.88;4989952;28;20078;-67
2022/03/22 07:00:31;;;;;;;1999.90;999.90;;;;;;;6.94;50.17;164246.78;4989225;28;20054;-67
2022/03/22 07:03:00;;;;;;;;;;;;;;;7.54;49.17;164407.53;4979281;28;20351;-67
2022/03/22 07:05:28;;;;;;;1999.90;999.90;;;;;;;7.86;48.14;164492.75;4990102;28;20396;-67
2022/03/22 07:07:56;;;;;;;1999.90;999.90;;;;;;;7.71;48.28;164452.88;4981492;28;20054;-67
2022/03/22 07:10:23;;;;;;;1999.90;999.90;;;;;;;8.25;47.18;164598.63;4980314;28;20050;-67
2022/03/22 07:12:59;;;;;;;1999.90;999.90;;;;;;;8.61;46.09;164694.94;4981122;28;20051;-67
2022/03/22 07:15:33;;;;;;;1999.90;999.90;;;;;;;8.73;46.05;164726.59;4988110;28;20108;-67
2022/03/22 07:18:00;;;;;;;1999.90;999.90;;;;;;;7.74;48.26;164461.13;4989940;28;20042;-67
2022/03/22 07:20:28;;;;;;;1999.90;999.90;;;;;;;8.15;47.84;164571.13;4977188;28;20682;-67
2022/03/22 07:22:58;;;;;;;1999.90;999.90;;;;;;;8.73;47.08;164726.59;4990083;28;20047;-67
2022/03/22 07:25:25;;;;;;;1999.90;999.90;;;;;;;9.12;45.96;164829.75;4978784;28;20104;-67
2022/03/22 07:27:52;;;;;;;1999.90;999.90;;;;;;;9.56;45.04;164946.72;4989443;28;20051;-66
2022/03/22 07:30:18;;;;;;;1999.90;999.90;;;;;;;8.57;46.02;164682.56;4980480;28;20084;-67
2022/03/22 07:32:45;;;;;;;1999.90;999.90;;;;;;;9.35;45.69;164891.72;4986804;28;20050;-67
2022/03/22 07:35:14;;;;;;;1999.90;999.90;;;;;;;10.32;44.27;165150.50;4990226;28;20372;-67
2022/03/22 07:37:42;;;;;;;1999.90;999.90;;;;;;;10.56;42.10;165216.63;4977825;28;20080;-67
2022/03/22 07:40:10;;;;;;;1999.90;999.90;;;;;;;11.02;41.43;165337.84;4984904;28;20112;-67
2022/03/22 07:42:37;;;;;;;1999.90;999.90;;;;;;;10.99;41.78;165330.94;4974343;28;20483;-68
2022/03/22 07:45:07;;;;;;;1999.90;999.90;;;;;;;10.59;41.74;165222.16;4990102;28;20054;-67
2022/03/22 07:47:34;;;;;;;1999.90;999.90;;;;;;;11.27;40.49;165406.72;4978146;28;20082;-67
2022/03/22 07:53:06;;;;;;;1999.90;999.90;;;;;;;11.13;39.83;165368.13;4988775;28;20049;-67
2022/03/22 07:55:41;;;;;;;1999.90;999.90;;;;;;;11.90;38.04;165574.84;4980592;28;20065;-67
2022/03/22 07:58:08;;;;;;;1999.90;999.90;;;;;;;12.48;37.40;165729.31;4988209;28;20042;-67
2022/03/22 08:00:38;;;;;;;1999.90;999.90;;;;;;;11.96;38.22;165590.06;4980365;28;20060;-67
2022/03/22 08:03:09;;;;;;;1999.90;999.90;;;;;;;12.68;36.50;165784.47;4988576;28;20140;-67
2022/03/22 08:05:37;;;;;;;1999.90;999.90;;;;;;;13.68;35.63;166050.72;4979281;28;20559;-67
2022/03/22 08:08:05;;;;;;;1999.90;999.90;;;;;;;13.85;33.97;166096.28;4987589;28;20058;-67
2022/03/22 08:10:51;;;;;;;1999.90;999.90;;;;;;;13.99;34.29;166133.53;4970519;28;20057;-67
2022/03/22 08:13:18;;;;;;;1999.90;999.90;;;;;;;13.10;34.44;165894.78;4986674;28;20108;-67
2022/03/22 08:15:45;;;;;;;1999.90;999.90;;;;;;;14.02;33.48;166143.22;4979772;28;20058;-67
2022/03/22 08:18:12;;;;;;;1999.90;999.90;;;;;;;14.31;32.35;166220.50;4976440;28;20343;-67
2022/03/22 08:20:38;;;;;;;1999.90;999.90;;;;;;;14.54;31.15;166281.22;4983594;28;20222;-67
2022/03/22 08:23:09;;;;;;;1666.87;833.52;;;;;;;15.07;29.09;166423.53;3323434;28;10002551;-68
2022/03/22 08:25:38;;;;;;;1999.90;999.90;;;;;;;14.85;29.56;166365.50;5007661;28;20053;-68
2022/03/22 08:28:07;;;;;;;1999.90;999.90;;;;;;;14.50;29.70;166271.59;4999097;28;20113;-68
2022/03/22 08:30:35;;;;;;;1999.90;999.90;;;;;;;14.72;29.90;166329.59;4998864;28;20095;-68
2022/03/22 08:33:06;;;;;;;1999.90;999.90;;;;;;;13.59;31.12;166027.31;5001451;28;20041;-68
2022/03/22 08:35:33;;;;;;;1999.90;999.90;;;;;;;14.84;31.05;166361.34;4996902;28;20061;-68
2022/03/22 08:37:59;;;;;;;1999.90;999.90;;;;;;;15.33;29.50;166493.91;5006834;28;20108;-68
2022/03/22 08:40:26;;;;;;;1999.90;999.90;;;;;;;15.79;30.24;166618.28;4996752;28;20049;-68
2022/03/22 08:42:53;;;;;;;1999.90;999.90;;;;;;;15.72;28.93;166598.94;5005768;28;20054;-68
2022/03/22 08:45:22;;;;;;;1999.90;999.90;;;;;;;15.09;29.17;166430.38;5005988;28;20045;-68
2022/03/22 08:47:50;;;;;;;1999.90;999.90;;;;;;;15.00;29.14;166405.53;4996609;28;20054;-68
2022/03/22 08:50:23;;;;;;;1999.90;999.90;;;;;;;15.41;28.88;166516.03;5007267;28;20109;-67
2022/03/22 08:52:50;;;;;;;1999.90;999.90;;;;;;;14.86;28.22;166366.91;4996235;28;20054;-67
2022/03/22 08:55:18;;;;;;;1999.90;999.90;;;;;;;15.06;28.32;166422.09;5004048;28;20135;-67
2022/03/22 08:57:47;;;;;;;1999.90;999.90;;;;;;;14.80;26.96;166351.72;4996125;28;20054;-67
2022/03/22 09:00:15;;;;;;;1999.90;999.90;;;;;;;15.65;27.51;166579.59;5003556;28;20035;-67
2022/03/22 09:02:44;;;;;;;1999.90;999.90;;;;;;;14.97;28.29;166397.25;5004041;28;20050;-68
2022/03/22 09:07:58;;;;;;;1999.90;999.90;;;;;;;17.02;25.70;166947.31;5007662;28;20399;-67
2022/03/22 09:10:25;;;;;;;1999.90;999.90;;;;;;;16.99;25.41;166940.41;4998487;28;20062;-67
2022/03/22 09:12:52;;;;;;;1999.90;999.90;;;;;;;17.41;25.41;167052.38;5007803;28;20057;-69
2022/03/22 09:15:21;;;;;;;1999.90;999.90;;;;;;;16.52;25.53;166814.56;4995743;28;20081;-69
2022/03/22 09:17:48;;;;;;;1999.90;999.90;;;;;;;16.72;25.25;166867.09;5007572;28;20050;-69
2022/03/22 09:20:15;;;;;;;1999.90;999.90;;;;;;;17.61;25.73;167106.31;5006333;28;20351;-69
2022/03/22 09:22:44;;;;;;;1999.90;999.90;;;;;;;18.01;24.44;167212.88;4999883;28;20466;-68
2022/03/22 09:25:12;;;;;;;1999.90;999.90;;;;;;;18.57;24.33;167365.06;5007680;28;20057;-68
2022/03/22 09:27:41;;;;;;;1999.90;999.90;;;;;;;17.86;24.76;167174.06;4998407;28;20085;-68
2022/03/22 09:30:08;;;;;;;1999.90;999.90;;;;;;;18.89;25.71;167450.94;5007917;28;20426;-69
2022/03/22 09:32:35;;;;;;;1999.90;999.90;;;;;;;18.21;24.15;167268.22;4995487;28;20045;-68
2022/03/22 09:35:07;;;;;;;1999.90;999.90;;;;;;;17.69;23.70;167128.44;5007044;28;20077;-67
2022/03/22 09:37:34;;;;;;;1999.90;999.90;;;;;;;17.53;26.31;167085.56;5007510;28;20136;-67
2022/03/22 09:40:00;;;;;;;1999.90;999.90;;;;;;;18.14;24.64;167248.84;4995661;28;20139;-67
2022/03/22 09:42:27;;;;;;;1999.90;999.90;;;;;;;18.94;22.81;167464.75;4999744;28;20139;-68
2022/03/22 09:44:54;;;;;;;1999.90;999.90;;;;;;;18.38;22.45;167313.84;4997737;28;20045;-68
2022/03/22 09:47:20;;;;;;;1999.90;999.90;;;;;;;15.84;26.39;166632.13;5006330;28;20112;-67
2022/03/22 09:49:47;;;;;;;1999.90;999.90;;;;;;;17.39;25.30;167048.25;4999999;28;20410;-68
2022/03/22 09:52:16;;;;;;;1999.90;999.90;;;;;;;18.40;22.96;167318.00;5011112;28;20054;-68
2022/03/22 09:54:43;;;;;;;1999.90;999.90;;;;;;;18.81;23.18;167428.72;5007193;28;20063;-68
2022/03/22 09:57:10;;;;;;;1999.90;999.90;;;;;;;18.66;21.89;167388.59;4999366;28;20451;-68
2022/03/22 09:59:39;;;;;;;1999.90;999.90;;;;;;;19.06;23.37;167495.22;5010645;28;20050;-68
2022/03/22 10:02:06;;;;;;;1999.90;999.90;;;;;;;19.09;21.44;167503.53;5002092;28;20100;-68
2022/03/22 10:04:38;;;;;;;1999.90;999.90;;;;;;;19.49;21.06;167611.50;5002632;28;20447;-68
2022/03/22 10:07:06;;;;;;;1999.90;999.90;;;;;;;19.32;20.83;167567.22;5009749;28;20085;-68
2022/03/22 10:09:36;;;;;;;1999.90;999.90;;;;;;;18.93;21.35;167460.63;5002173;28;20121;-68
2022/03/22 10:12:04;;;;;;;1999.90;999.90;;;;;;;18.65;20.70;167385.81;5009821;28;20053;-68
2022/03/22 10:14:41;;;;;;;1999.90;999.90;;;;;;;18.73;21.80;167407.97;5000378;28;20054;-68
2022/03/22 10:17:20;;;;;;;1999.90;999.90;;;;;;;19.23;21.67;167540.88;5000822;28;20046;-68
2022/03/22 10:19:49;;;;;;;1999.90;999.90;;;;;;;19.33;21.12;167569.94;5001993;28;20127;-68
2022/03/22 10:22:22;;;;;;;1999.90;999.90;;;;;;;19.32;21.06;167567.22;5010592;28;20058;-68
2022/03/22 10:24:51;;;;;;;1999.90;999.90;;;;;;;20.40;20.56;167856.66;5001713;28;20080;-69
2022/03/22 10:27:20;;;;;;;1999.90;999.90;;;;;;;20.47;19.64;167876.06;5008599;28;20104;-68
2022/03/22 10:29:46;;;;;;;1999.90;999.90;;;;;;;20.13;18.96;167784.63;5010419;28;20528;-67
2022/03/22 10:32:14;;;;;;;1999.90;999.90;;;;;;;19.91;19.27;167725.09;4999751;28;20057;-67
2022/03/22 10:34:42;;;;;;;1999.90;999.90;;;;;;;19.77;19.45;167686.25;5007359;28;20058;-67
2022/03/22 10:37:09;;;;;;;1999.90;999.90;;;;;;;19.33;19.84;167568.59;4998200;28;20089;-67
2022/03/22 10:39:40;;;;;;;1999.90;999.90;;;;;;;18.88;20.32;167448.16;5010125;28;20103;-67
2022/03/22 10:42:08;;;;;;;1999.90;999.90;;;;;;;18.59;20.34;167370.63;5010512;28;20089;-67
2022/03/22 10:44:37;;;;;;;1999.90;999.90;;;;;;;18.56;19.41;167360.91;4998756;28;20446;-67
2022/03/22 10:47:07;;;;;;;1999.90;999.90;;;;;;;19.35;18.38;167574.09;5010149;28;20050;-68
2022/03/22 10:49:34;;;;;;;1999.90;999.90;;;;;;;19.39;19.46;167583.81;4978366;28;20104;-67
2022/03/22 10:52:19;;;;;;;1999.90;999.90;;;;;;;19.60;19.10;167641.94;5009773;28;20065;-67
2022/03/22 10:54:45;;;;;;;1999.90;999.90;;;;;;;19.22;18.55;167539.53;4998506;28;20648;-67
2022/03/22 10:57:14;;;;;;;1999.90;999.90;;;;;;;19.17;18.77;167525.66;5009886;28;20054;-67
2022/03/22 10:59:41;;;;;;;1999.90;999.90;;;;;;;19.71;18.84;167672.41;5009611;28;20382;-67
2022/03/22 11:02:08;;;;;;;1999.90;999.90;;;;;;;20.02;18.46;167754.16;5000160;28;20046;-68
2022/03/22 11:04:37;;;;;;;1999.90;999.90;;;;;;;20.26;18.94;167819.28;5008971;28;20054;-67
2022/03/22 11:07:04;;;;;;;1999.90;999.90;;;;;;;20.67;17.90;167930.13;4999915;28;20085;-68
2022/03/22 11:09:31;;;;;;;1999.90;999.90;;;;;;;20.68;18.17;167932.91;5009124;28;20092;-67
2022/03/22 11:11:58;;;;;;;1999.90;999.90;;;;;;;20.82;17.72;167970.28;5002509;28;20054;-67
2022/03/22 11:14:26;;;;;;;1999.90;999.90;;;;;;;20.84;18.58;167975.88;5000139;28;20054;-68
2022/03/22 11:16:54;;;;;;;1999.90;999.90;;;;;;;19.84;18.18;167707.13;5007426;28;20139;-68
2022/03/22 11:19:22;;;;;;;1999.90;999.90;;;;;;;19.78;18.15;167690.44;5000298;28;20359;-67
2022/03/22 11:21:49;;;;;;;1999.90;999.90;;;;;;;19.98;18.09;167743.13;5009260;28;20320;-67